createdAt,value
2023-01-25T04:30:50.755Z,14.20
2023-01-25T04:41:29.227Z,12.43
2023-01-25T04:52:06.290Z,11.47
2023-01-25T05:02:42.534Z,11.45
2023-01-25T05:13:18.552Z,11.25
2023-01-25T05:23:55.443Z,11.60
2023-01-25T05:34:33.055Z,10.90
2023-01-25T05:45:10.332Z,9.73
2023-01-25T05:55:48.771Z,9.95
2023-01-25T06:06:26.029Z,9.65
2023-01-25T06:17:01.932Z,10.95
2023-01-25T06:28:05.895Z,10.52
2023-01-25T06:38:42.157Z,12.77
2023-01-25T06:49:17.896Z,11.05
2023-01-25T06:59:53.469Z,11.75
2023-01-25T07:10:29.074Z,12.45
2023-01-25T07:21:06.418Z,13.48
2023-01-25T07:31:42.718Z,14.47
2023-01-25T07:42:18.554Z,10.73
2023-01-25T07:53:01.141Z,10.55
2023-01-25T08:03:37.141Z,10.50
2023-01-25T08:14:12.549Z,11.98
2023-01-25T08:24:48.307Z,12.18
2023-01-25T08:35:23.843Z,13.00
2023-01-25T08:45:59.609Z,14.48
2023-01-25T08:56:37.843Z,11.50
2023-01-25T09:07:13.530Z,11.13
2023-01-25T09:17:53.741Z,12.43
2023-01-25T09:28:30.560Z,13.15
2023-01-25T09:39:06.430Z,13.20
2023-01-25T09:49:45.005Z,13.57
2023-01-25T10:00:27.845Z,12.43
2023-01-25T10:11:21.529Z,14.95
2023-01-25T10:22:18.630Z,15.13
2023-01-25T10:33:13.395Z,15.68
2023-01-25T10:44:08.969Z,13.07
2023-01-25T10:54:44.884Z,13.70
2023-01-25T11:05:29.567Z,12.20
2023-01-25T11:16:27.723Z,13.00
2023-01-25T11:27:24.765Z,13.02
2023-01-25T11:38:15.851Z,14.68
2023-01-25T11:48:54.079Z,11.35
2023-01-25T11:59:57.587Z,11.83
2023-01-25T12:10:56.467Z,12.82
2023-01-25T12:22:01.365Z,13.03
2023-01-25T12:33:08.905Z,12.93
2023-01-25T12:44:13.213Z,12.90
2023-01-25T13:05:37.035Z,13.40
2023-01-25T13:16:36.325Z,15.82
2023-01-25T13:27:26.977Z,13.60
2023-01-25T13:38:08.728Z,14.43
2023-01-25T13:48:59.756Z,15.23
2023-01-25T13:59:35.164Z,12.85
2023-01-25T14:10:24.223Z,14.13
2023-01-25T14:31:50.810Z,14.38
2023-01-25T14:42:26.533Z,13.90
2023-01-25T14:53:24.419Z,12.32
2023-01-25T15:04:00.110Z,13.18
2023-01-25T15:14:51.103Z,14.10
2023-01-25T15:25:27.451Z,14.45
2023-01-25T15:36:02.985Z,15.45
2023-01-25T15:46:41.869Z,15.48
2023-01-25T15:57:29.219Z,14.55
2023-01-25T16:08:05.163Z,19.02
2023-01-25T16:18:40.556Z,16.60
2023-01-25T16:29:16.316Z,13.77
2023-01-25T16:39:53.579Z,13.30
2023-01-25T16:50:29.537Z,10.45
2023-01-25T17:01:09.992Z,11.85
2023-01-25T17:11:45.953Z,11.77
2023-01-25T17:22:21.552Z,16.70
2023-01-25T17:32:57.208Z,14.45
2023-01-25T17:43:34.573Z,13.38
2023-01-25T17:54:10.664Z,11.40
2023-01-25T18:04:46.463Z,12.75
2023-01-25T18:15:23.478Z,12.43
2023-01-25T18:25:58.934Z,14.48
2023-01-25T18:36:34.692Z,13.85
2023-01-25T18:47:13.657Z,16.48
2023-01-25T18:57:49.337Z,12.43
2023-01-25T19:08:25.684Z,12.40
2023-01-25T19:19:01.270Z,12.32
2023-01-25T19:29:37.101Z,22.70
2023-01-25T19:40:14.812Z,15.70
2023-01-25T19:50:50.332Z,14.45
2023-01-25T20:01:29.396Z,14.73
2023-01-25T20:12:07.809Z,14.30
2023-01-25T20:22:43.307Z,14.00
2023-01-25T20:33:18.684Z,13.75
2023-01-25T20:44:04.011Z,15.57
2023-01-25T20:54:41.540Z,16.73
2023-01-25T21:05:17.346Z,17.33
2023-01-25T21:16:17.765Z,16.75
2023-01-25T21:26:53.479Z,17.60
2023-01-25T21:37:29.168Z,18.27
2023-01-25T21:48:05.205Z,19.75
2023-01-25T21:58:40.606Z,18.50
2023-01-25T22:09:16.675Z,19.95
2023-01-25T22:19:52.453Z,22.05
